Ida Grove, IA (51445)

11:17 AM CST on November 27, 2014 (GMT -0600)
Oxendales Arthur, IA | Change Station
CLOSE
Current Station
Personal Weather Station
Location: Arthur, IA
Elevation: 1496 ft
Nearby Weather Stations

Elev 1496 ft 42.28 °N, 95.36 °W | Updated 24 seconds ago

Partly Cloudy
Partly Cloudy
7.5 °F
Feels Like 0 °F
N
3.6
Wind Variable Wind from SW
Gusts 3.6 mph

Today
High -- | Low -- °F
--% Chance of Precip.
Yesterday
High -- | Low -- °F
Precip. -- in
7:26 AM 4:51 PM
Waxing Crescent, 31% visible
Pressure 30.51 in
Visibility 10.0 miles
Clouds Clear
Windchill 0 °F
Dew Point -2 °F
Humidity 65%
Rainfall 0.00 in
Snow Depth Not available.
UV 2 out of 12
Pollen .10 out of 12
Air Quality Not available.
Flu Activity Not available.
METAR KSLB 271655Z AUTO 00000KT 10SM CLR M17/M21 A3051 RMK AO2

More Conditions Fewer Conditions

Pressure 30.51 in
Visibility 10.0 miles
Clouds Clear
Windchill 0 °F
Dew Point -2 °F
Humidity 65%
Rainfall 0.00 in
Snow Depth Not available.
UV 2 out of 12
Pollen .10 out of 12
Air Quality Not available.
Flu Activity Not available.
METAR KSLB 271655Z AUTO 00000KT 10SM CLR M17/M21 A3051 RMK AO2

More Conditions Fewer Conditions

10-Day Weather Forecast

Almanac

Astronomy

Nov. 27, 2014 Rise Set
Actual Time
Civil Twilight
Nautical Twilight
Astronomical Twilight
Moon
Length of Visible Light
Length of Day
Tomorrow will be .
, % of the Moon is Illuminated

Today's Extremes

State Highs State Lows

Community

WunderPhotos

Upload Photos

1,774,046 photos uploaded!

WunderBlogs® & News

Nearby

Air Quality

  Air Quality AQ Index Pollutant
Not available.

Snow Depth

Station Depth Elevation

Earthquake Activity

City Distance Mag. Time & Date
Minimum magnitude displayed is 2.5.

Coastal Water Temperatures

Place Temperature

Nearby Weather Stations